createdAt,value
2022-09-01T16:02:10.931Z,57.00
2022-09-01T16:03:43.063Z,54.80
2022-09-01T16:05:15.682Z,54.00
2022-09-01T16:06:49.740Z,56.80
2022-09-01T16:08:21.910Z,54.20
2022-09-01T16:09:58.201Z,50.80
2022-09-01T16:11:30.419Z,49.80
2022-09-01T16:13:02.696Z,47.40
2022-09-01T16:14:36.375Z,48.60
2022-09-01T16:16:56.525Z,46.60
2022-09-01T16:18:41.717Z,45.80
2022-09-01T16:20:21.155Z,40.40
2022-09-01T16:22:23.731Z,44.20
2022-09-01T16:24:01.528Z,39.40
2022-09-01T16:25:37.458Z,39.20
2022-09-01T16:27:10.764Z,39.40
2022-09-01T16:28:42.900Z,37.80
2022-09-01T16:30:22.566Z,38.80
2022-09-01T16:31:58.813Z,36.40
2022-09-01T16:33:33.301Z,36.20
2022-09-01T16:35:05.985Z,37.60
2022-09-01T16:37:06.045Z,32.40
2022-09-01T16:38:46.576Z,35.20
2022-09-01T16:40:41.460Z,32.40
2022-09-01T16:42:27.500Z,348.50
2022-09-01T16:44:13.772Z,288.75
2022-09-01T16:46:05.746Z,228.67
2022-09-01T16:47:55.701Z,215.67
2022-09-01T16:50:09.459Z,187.50
2022-09-01T16:51:53.805Z,168.00
2022-09-01T16:53:44.121Z,153.00
2022-09-01T16:55:31.983Z,142.50
2022-09-01T16:57:15.175Z,149.50
2022-09-01T16:59:03.859Z,185.25
2022-09-01T17:01:07.431Z,174.00
2022-09-01T17:03:02.296Z,179.00
2022-09-01T17:04:58.894Z,156.50
2022-09-01T17:07:09.375Z,153.50
2022-09-01T17:08:52.689Z,147.50
2022-09-01T17:10:34.611Z,151.00
2022-09-01T17:12:30.567Z,143.00
2022-09-01T17:14:03.083Z,145.50
2022-09-01T17:15:44.300Z,129.50
2022-09-01T17:17:20.923Z,139.75
2022-09-01T17:18:58.468Z,123.75
2022-09-01T17:20:31.492Z,131.00
2022-09-01T17:22:12.021Z,120.75
2022-09-01T17:24:21.337Z,110.40
2022-09-01T17:26:04.166Z,110.40
2022-09-01T17:27:38.984Z,105.40
2022-09-01T17:29:30.427Z,109.50
2022-09-01T17:31:14.714Z,102.25
2022-09-01T17:33:17.164Z,100.75
2022-09-01T17:34:58.083Z,121.50
2022-09-01T17:37:12.087Z,307.25
2022-09-01T17:39:01.246Z,214.33
2022-09-01T17:40:46.281Z,200.25
2022-09-01T17:42:21.842Z,189.75
2022-09-01T17:44:18.244Z,182.75
2022-09-01T17:46:14.082Z,177.50
2022-09-01T17:48:13.631Z,167.50
2022-09-01T17:50:21.215Z,170.00
2022-09-01T17:52:15.205Z,165.50
2022-09-01T17:54:13.103Z,157.00
2022-09-01T17:55:55.392Z,159.75
2022-09-01T17:57:38.848Z,159.00
2022-09-01T17:59:28.611Z,149.25
2022-09-01T18:01:10.153Z,216.67
2022-09-01T18:02:48.344Z,196.67
2022-09-01T18:04:45.345Z,208.00
2022-09-01T18:06:34.661Z,188.00
2022-09-01T18:08:18.692Z,192.00
2022-09-01T18:09:55.926Z,176.25
2022-09-01T18:11:39.946Z,179.00
2022-09-01T18:13:59.717Z,174.00
2022-09-01T18:15:48.120Z,147.50
2022-09-01T18:17:33.351Z,158.50
2022-09-01T18:19:09.302Z,151.00
2022-09-01T18:20:47.407Z,159.00
2022-09-01T18:22:21.811Z,195.00
2022-09-01T18:24:02.316Z,205.00
2022-09-01T18:25:56.362Z,197.00
2022-09-01T18:27:32.745Z,151.25
2022-09-01T18:29:05.918Z,197.00
2022-09-01T18:31:02.710Z,192.75
2022-09-01T18:32:43.939Z,185.75
2022-09-01T18:34:20.022Z,177.75
2022-09-01T18:36:18.517Z,159.50
2022-09-01T18:38:07.811Z,179.50
2022-09-01T18:40:04.729Z,173.00
2022-09-01T18:42:04.533Z,166.00
2022-09-01T18:44:04.195Z,165.50
2022-09-01T18:46:01.691Z,165.00
2022-09-01T18:47:44.436Z,159.50
2022-09-01T18:49:24.271Z,132.00
2022-09-01T18:51:18.189Z,142.50
2022-09-01T18:53:14.660Z,229.00
2022-09-01T18:54:59.253Z,212.50
2022-09-01T18:56:37.558Z,203.67
2022-09-01T18:58:24.624Z,202.50
2022-09-01T19:00:03.081Z,186.75
2022-09-01T19:02:07.106Z,193.25
2022-09-01T19:03:48.743Z,182.75
2022-09-01T19:05:33.599Z,180.50
2022-09-01T19:07:38.817Z,169.25
2022-09-01T19:09:14.386Z,168.25
2022-09-01T19:11:01.407Z,326.75
2022-09-01T19:12:45.107Z,370.60
2022-09-01T19:14:49.512Z,314.25
2022-09-01T19:16:34.766Z,266.50
2022-09-01T19:18:15.382Z,251.67
2022-09-01T19:19:59.843Z,237.33
2022-09-01T19:21:32.403Z,215.33
2022-09-01T19:23:35.938Z,203.00
2022-09-01T19:25:29.279Z,212.33
2022-09-01T19:27:12.180Z,197.75
2022-09-01T19:29:01.483Z,191.75
2022-09-01T19:30:35.428Z,172.50
2022-09-01T19:32:09.131Z,182.75
2022-09-01T19:33:43.293Z,179.25
2022-09-01T19:35:16.571Z,170.25
2022-09-01T19:36:51.927Z,167.00
2022-09-01T19:38:27.790Z,171.75
2022-09-01T19:40:00.989Z,159.00
2022-09-01T19:42:03.958Z,153.75
2022-09-01T19:43:36.797Z,150.00
2022-09-01T19:45:16.978Z,144.50
2022-09-01T19:46:53.012Z,153.00
2022-09-01T19:48:38.307Z,146.00
2022-09-01T19:50:21.297Z,109.50
2022-09-01T19:52:11.260Z,164.25
2022-09-01T19:54:03.760Z,213.33
2022-09-01T19:55:35.507Z,201.25
2022-09-01T19:57:30.740Z,172.50
2022-09-01T19:59:21.250Z,178.25
2022-09-01T20:01:01.445Z,160.25
2022-09-01T20:02:42.117Z,169.00
2022-09-01T20:04:26.778Z,167.50
2022-09-01T20:06:14.120Z,155.00
2022-09-01T20:08:03.223Z,151.25
2022-09-01T20:09:39.527Z,154.00
2022-09-01T20:11:35.130Z,148.00
2022-09-01T20:13:25.208Z,140.25
2022-09-01T20:15:45.700Z,137.00
2022-09-01T20:17:32.883Z,174.25
2022-09-01T20:19:10.514Z,222.33
2022-09-01T20:20:46.632Z,193.75
2022-09-01T20:22:24.703Z,175.75
2022-09-01T20:24:38.526Z,171.75
2022-09-01T20:26:23.405Z,175.75
2022-09-01T20:28:07.187Z,172.25
2022-09-01T20:29:59.271Z,177.50
2022-09-01T20:31:35.260Z,161.25
2022-09-01T20:33:54.289Z,171.25
2022-09-01T20:35:39.814Z,171.50
2022-09-01T20:37:11.737Z,155.00
2022-09-01T20:39:10.970Z,156.75
2022-09-01T20:40:42.902Z,149.25
2022-09-01T20:44:54.486Z,139.25
2022-09-01T20:46:26.789Z,137.50
2022-09-01T20:48:07.087Z,139.50
2022-09-01T20:49:39.006Z,136.00
2022-09-01T20:51:54.095Z,142.00
2022-09-01T20:53:35.020Z,119.60
2022-09-01T20:55:10.983Z,123.40
2022-09-01T20:57:12.130Z,120.40
2022-09-01T20:58:44.904Z,188.75
2022-09-01T21:00:16.542Z,186.25
2022-09-01T21:02:04.985Z,165.50
2022-09-01T21:03:50.165Z,162.75
2022-09-01T21:05:36.180Z,152.00
2022-09-01T21:07:21.785Z,154.00
2022-09-01T21:09:03.783Z,156.00
2022-09-01T21:10:41.283Z,143.50
2022-09-01T21:12:30.864Z,137.25
2022-09-01T21:14:13.875Z,136.75
2022-09-01T21:15:55.492Z,138.50
2022-09-01T21:17:27.145Z,132.75
2022-09-01T21:19:18.079Z,133.25
2022-09-01T21:21:00.693Z,118.50
2022-09-01T21:22:32.651Z,128.40
2022-09-01T21:24:07.552Z,121.00
2022-09-01T21:25:39.271Z,112.80
2022-09-01T21:27:22.712Z,100.20
2022-09-01T21:28:56.013Z,105.00
2022-09-01T21:30:30.711Z,112.25
2022-09-01T21:32:02.971Z,68.75
2022-09-01T21:33:35.115Z,66.75
2022-09-01T21:35:09.622Z,58.00
2022-09-01T21:36:41.603Z,58.25
2022-09-01T21:38:13.518Z,61.50
2022-09-01T21:39:45.456Z,52.80
2022-09-01T21:41:17.177Z,49.80
2022-09-01T21:42:51.764Z,107.00
2022-09-01T21:44:23.548Z,113.00
2022-09-01T21:45:55.462Z,122.00
2022-09-01T21:47:28.164Z,112.20
2022-09-01T21:49:00.092Z,125.40
2022-09-01T21:50:31.918Z,123.20
2022-09-01T21:52:04.514Z,112.20
2022-09-01T21:53:36.416Z,110.80
2022-09-01T21:55:08.891Z,98.75
2022-09-01T21:56:40.728Z,77.00
2022-09-01T21:58:12.536Z,96.00
2022-09-01T21:59:44.556Z,93.25
2022-09-01T22:01:16.351Z,89.50
2022-09-01T22:02:48.462Z,95.25
2022-09-01T22:04:21.120Z,87.75
2022-09-01T22:05:53.073Z,86.00
2022-09-01T22:07:24.823Z,79.75
2022-09-01T22:08:56.786Z,82.25
2022-09-01T22:10:29.608Z,64.75
2022-09-01T22:12:03.671Z,62.25
2022-09-01T22:13:35.733Z,65.75
2022-09-01T22:15:09.243Z,66.00
2022-09-01T22:16:42.687Z,65.75
2022-09-01T22:18:15.033Z,68.00
2022-09-01T22:19:46.782Z,93.75
2022-09-01T22:21:18.801Z,171.75
2022-09-01T22:22:51.020Z,160.25
2022-09-01T22:24:22.801Z,138.75
2022-09-01T22:25:54.581Z,124.00
2022-09-01T22:27:26.547Z,119.40
2022-09-01T22:28:59.563Z,117.40
2022-09-01T22:30:31.837Z,115.00
2022-09-01T22:32:03.875Z,96.00
2022-09-01T22:33:35.580Z,94.00
